sensor_id;sensor_type;location;lat;lon;timestamp;temperature;humidity
6260;DHT22;3163;51.516;4.000;2023-02-07T00:00:39;8.50;99.90
6260;DHT22;3163;51.516;4.000;2023-02-07T00:03:05;8.50;99.90
6260;DHT22;3163;51.516;4.000;2023-02-07T00:05:30;8.50;99.90
6260;DHT22;3163;51.516;4.000;2023-02-07T00:07:56;8.40;99.90
6260;DHT22;3163;51.516;4.000;2023-02-07T00:10:22;8.30;99.90
6260;DHT22;3163;51.516;4.000;2023-02-07T00:12:47;8.30;99.90
6260;DHT22;3163;51.516;4.000;2023-02-07T00:15:14;8.40;99.90
6260;DHT22;3163;51.516;4.000;2023-02-07T00:17:40;8.50;99.90
6260;DHT22;3163;51.516;4.000;2023-02-07T00:20:06;8.50;99.90
6260;DHT22;3163;51.516;4.000;2023-02-07T00:22:32;8.50;99.90
6260;DHT22;3163;51.516;4.000;2023-02-07T00:24:57;8.50;99.90
6260;DHT22;3163;51.516;4.000;2023-02-07T00:27:23;8.50;99.90
6260;DHT22;3163;51.516;4.000;2023-02-07T00:29:49;8.50;99.90
6260;DHT22;3163;51.516;4.000;2023-02-07T00:32:14;8.40;99.90
6260;DHT22;3163;51.516;4.000;2023-02-07T00:34:40;8.30;99.90
6260;DHT22;3163;51.516;4.000;2023-02-07T00:37:06;8.30;99.90
6260;DHT22;3163;51.516;4.000;2023-02-07T00:39:32;8.30;99.90
6260;DHT22;3163;51.516;4.000;2023-02-07T00:41:58;8.30;99.90
6260;DHT22;3163;51.516;4.000;2023-02-07T00:44:24;8.20;99.90
6260;DHT22;3163;51.516;4.000;2023-02-07T00:46:49;8.10;99.90
6260;DHT22;3163;51.516;4.000;2023-02-07T00:49:15;8.20;99.90
6260;DHT22;3163;51.516;4.000;2023-02-07T00:51:41;8.20;99.90
6260;DHT22;3163;51.516;4.000;2023-02-07T00:54:06;8.30;99.90
6260;DHT22;3163;51.516;4.000;2023-02-07T00:56:32;8.40;99.90
6260;DHT22;3163;51.516;4.000;2023-02-07T00:58:58;8.50;99.90
6260;DHT22;3163;51.516;4.000;2023-02-07T01:01:25;8.60;99.90
6260;DHT22;3163;51.516;4.000;2023-02-07T01:03:52;8.70;99.90
6260;DHT22;3163;51.516;4.000;2023-02-07T01:06:17;8.70;99.90
6260;DHT22;3163;51.516;4.000;2023-02-07T01:08:44;8.80;99.90
6260;DHT22;3163;51.516;4.000;2023-02-07T01:11:11;8.70;99.90
6260;DHT22;3163;51.516;4.000;2023-02-07T01:13:39;8.70;99.90
6260;DHT22;3163;51.516;4.000;2023-02-07T01:16:23;8.70;99.90
6260;DHT22;3163;51.516;4.000;2023-02-07T01:18:50;8.70;99.90
6260;DHT22;3163;51.516;4.000;2023-02-07T01:21:21;8.70;99.90
6260;DHT22;3163;51.516;4.000;2023-02-07T01:23:47;8.60;99.90
6260;DHT22;3163;51.516;4.000;2023-02-07T01:26:13;8.60;99.90
6260;DHT22;3163;51.516;4.000;2023-02-07T01:28:38;8.60;99.90
6260;DHT22;3163;51.516;4.000;2023-02-07T01:31:09;8.70;99.90
6260;DHT22;3163;51.516;4.000;2023-02-07T01:33:36;8.60;99.90
6260;DHT22;3163;51.516;4.000;2023-02-07T01:36:11;8.70;99.90
6260;DHT22;3163;51.516;4.000;2023-02-07T01:38:37;8.70;99.90
6260;DHT22;3163;51.516;4.000;2023-02-07T01:41:02;8.60;99.90
6260;DHT22;3163;51.516;4.000;2023-02-07T01:43:29;8.50;99.90
6260;DHT22;3163;51.516;4.000;2023-02-07T01:45:54;8.50;99.90
6260;DHT22;3163;51.516;4.000;2023-02-07T01:48:31;8.50;99.90
6260;DHT22;3163;51.516;4.000;2023-02-07T01:51:02;8.40;99.90
6260;DHT22;3163;51.516;4.000;2023-02-07T01:53:29;8.50;99.90
6260;DHT22;3163;51.516;4.000;2023-02-07T01:55:59;8.40;99.90
6260;DHT22;3163;51.516;4.000;2023-02-07T01:58:27;8.00;99.90
6260;DHT22;3163;51.516;4.000;2023-02-07T02:00:54;8.00;99.90
6260;DHT22;3163;51.516;4.000;2023-02-07T02:03:19;8.00;99.90
6260;DHT22;3163;51.516;4.000;2023-02-07T02:05:46;8.00;99.90
6260;DHT22;3163;51.516;4.000;2023-02-07T02:08:12;7.80;99.90
6260;DHT22;3163;51.516;4.000;2023-02-07T02:10:54;8.10;99.90
6260;DHT22;3163;51.516;4.000;2023-02-07T02:13:48;7.80;99.90
6260;DHT22;3163;51.516;4.000;2023-02-07T02:16:37;7.70;99.90
6260;DHT22;3163;51.516;4.000;2023-02-07T02:25:10;7.60;99.90
6260;DHT22;3163;51.516;4.000;2023-02-07T02:34:02;8.10;99.90
6260;DHT22;3163;51.516;4.000;2023-02-07T02:36:39;7.90;99.90
6260;DHT22;3163;51.516;4.000;2023-02-07T02:44:39;7.70;99.90
6260;DHT22;3163;51.516;4.000;2023-02-07T02:47:07;7.80;99.90
6260;DHT22;3163;51.516;4.000;2023-02-07T02:49:35;7.80;99.90
6260;DHT22;3163;51.516;4.000;2023-02-07T02:52:01;7.90;99.90
6260;DHT22;3163;51.516;4.000;2023-02-07T02:54:34;8.00;99.90
6260;DHT22;3163;51.516;4.000;2023-02-07T03:08:27;7.90;99.90
6260;DHT22;3163;51.516;4.000;2023-02-07T03:16:03;7.80;99.90
6260;DHT22;3163;51.516;4.000;2023-02-07T03:23:52;7.60;99.90
6260;DHT22;3163;51.516;4.000;2023-02-07T03:26:22;7.50;99.90
6260;DHT22;3163;51.516;4.000;2023-02-07T03:28:49;7.60;99.90
6260;DHT22;3163;51.516;4.000;2023-02-07T03:31:18;7.60;99.90
6260;DHT22;3163;51.516;4.000;2023-02-07T03:33:47;7.60;99.90
6260;DHT22;3163;51.516;4.000;2023-02-07T03:36:18;7.30;99.90
6260;DHT22;3163;51.516;4.000;2023-02-07T03:38:46;7.10;99.90
6260;DHT22;3163;51.516;4.000;2023-02-07T03:41:18;7.10;99.90
6260;DHT22;3163;51.516;4.000;2023-02-07T03:43:45;7.30;99.90
6260;DHT22;3163;51.516;4.000;2023-02-07T03:46:11;7.00;99.90
6260;DHT22;3163;51.516;4.000;2023-02-07T03:48:37;6.90;99.90
6260;DHT22;3163;51.516;4.000;2023-02-07T03:51:03;6.90;99.90
6260;DHT22;3163;51.516;4.000;2023-02-07T03:53:29;6.80;99.90
6260;DHT22;3163;51.516;4.000;2023-02-07T03:55:54;7.10;99.90
6260;DHT22;3163;51.516;4.000;2023-02-07T03:58:20;7.10;99.90
6260;DHT22;3163;51.516;4.000;2023-02-07T04:00:45;7.20;99.90
6260;DHT22;3163;51.516;4.000;2023-02-07T04:03:11;7.10;99.90
6260;DHT22;3163;51.516;4.000;2023-02-07T04:05:36;7.10;99.90
6260;DHT22;3163;51.516;4.000;2023-02-07T04:08:02;7.20;99.90
6260;DHT22;3163;51.516;4.000;2023-02-07T04:10:28;7.30;99.90
6260;DHT22;3163;51.516;4.000;2023-02-07T04:12:53;6.90;99.90
6260;DHT22;3163;51.516;4.000;2023-02-07T04:15:19;6.80;99.90
6260;DHT22;3163;51.516;4.000;2023-02-07T04:17:44;7.00;99.90
6260;DHT22;3163;51.516;4.000;2023-02-07T04:20:11;7.10;99.90
6260;DHT22;3163;51.516;4.000;2023-02-07T04:22:36;7.10;99.90
6260;DHT22;3163;51.516;4.000;2023-02-07T04:25:02;7.20;99.90
6260;DHT22;3163;51.516;4.000;2023-02-07T04:27:28;7.40;99.90
6260;DHT22;3163;51.516;4.000;2023-02-07T04:29:54;7.30;99.90
6260;DHT22;3163;51.516;4.000;2023-02-07T04:32:20;7.20;99.90
6260;DHT22;3163;51.516;4.000;2023-02-07T04:34:46;7.50;99.90
6260;DHT22;3163;51.516;4.000;2023-02-07T04:37:11;7.40;99.90
6260;DHT22;3163;51.516;4.000;2023-02-07T04:39:37;7.70;99.90
6260;DHT22;3163;51.516;4.000;2023-02-07T04:42:04;7.50;99.90
6260;DHT22;3163;51.516;4.000;2023-02-07T04:44:29;7.20;99.90
6260;DHT22;3163;51.516;4.000;2023-02-07T04:46:55;7.30;99.90
6260;DHT22;3163;51.516;4.000;2023-02-07T04:49:21;7.40;99.90
6260;DHT22;3163;51.516;4.000;2023-02-07T04:51:47;7.60;99.90
6260;DHT22;3163;51.516;4.000;2023-02-07T04:54:12;7.60;99.90
6260;DHT22;3163;51.516;4.000;2023-02-07T04:56:38;7.10;99.90
6260;DHT22;3163;51.516;4.000;2023-02-07T04:59:04;7.30;99.90
6260;DHT22;3163;51.516;4.000;2023-02-07T05:01:29;7.40;99.90
6260;DHT22;3163;51.516;4.000;2023-02-07T05:03:55;7.40;99.90
6260;DHT22;3163;51.516;4.000;2023-02-07T05:06:21;7.40;99.90
6260;DHT22;3163;51.516;4.000;2023-02-07T05:08:46;7.30;99.90
6260;DHT22;3163;51.516;4.000;2023-02-07T05:11:12;6.90;99.90
6260;DHT22;3163;51.516;4.000;2023-02-07T05:13:38;7.20;99.90
6260;DHT22;3163;51.516;4.000;2023-02-07T05:16:04;7.50;99.90
6260;DHT22;3163;51.516;4.000;2023-02-07T05:18:30;7.20;99.90
6260;DHT22;3163;51.516;4.000;2023-02-07T05:20:56;6.90;99.90
6260;DHT22;3163;51.516;4.000;2023-02-07T05:23:22;6.60;99.90
6260;DHT22;3163;51.516;4.000;2023-02-07T05:25:48;6.70;99.90
6260;DHT22;3163;51.516;4.000;2023-02-07T05:28:13;6.30;99.90
6260;DHT22;3163;51.516;4.000;2023-02-07T05:30:39;6.80;99.90
6260;DHT22;3163;51.516;4.000;2023-02-07T05:33:08;6.50;99.90
6260;DHT22;3163;51.516;4.000;2023-02-07T05:35:36;6.60;99.90
6260;DHT22;3163;51.516;4.000;2023-02-07T05:38:04;6.70;99.90
6260;DHT22;3163;51.516;4.000;2023-02-07T05:40:33;6.90;99.90
6260;DHT22;3163;51.516;4.000;2023-02-07T05:42:58;7.00;99.90
6260;DHT22;3163;51.516;4.000;2023-02-07T05:45:24;7.10;99.90
6260;DHT22;3163;51.516;4.000;2023-02-07T05:47:50;7.00;99.90
6260;DHT22;3163;51.516;4.000;2023-02-07T05:50:16;7.10;99.90
6260;DHT22;3163;51.516;4.000;2023-02-07T05:52:42;6.90;99.90
6260;DHT22;3163;51.516;4.000;2023-02-07T05:55:09;6.70;99.90
6260;DHT22;3163;51.516;4.000;2023-02-07T05:57:34;6.80;99.90
6260;DHT22;3163;51.516;4.000;2023-02-07T06:00:00;6.20;99.90
6260;DHT22;3163;51.516;4.000;2023-02-07T06:02:26;5.70;99.90
6260;DHT22;3163;51.516;4.000;2023-02-07T06:04:51;5.70;99.90
6260;DHT22;3163;51.516;4.000;2023-02-07T06:07:17;6.10;99.90
6260;DHT22;3163;51.516;4.000;2023-02-07T06:09:43;6.30;99.90
6260;DHT22;3163;51.516;4.000;2023-02-07T06:12:08;5.80;99.90
6260;DHT22;3163;51.516;4.000;2023-02-07T06:14:34;5.10;99.90
6260;DHT22;3163;51.516;4.000;2023-02-07T06:16:59;5.20;99.90
6260;DHT22;3163;51.516;4.000;2023-02-07T06:19:25;5.80;99.90
6260;DHT22;3163;51.516;4.000;2023-02-07T06:21:51;6.30;99.90
6260;DHT22;3163;51.516;4.000;2023-02-07T06:24:16;6.70;99.90
6260;DHT22;3163;51.516;4.000;2023-02-07T06:26:42;6.70;99.90
6260;DHT22;3163;51.516;4.000;2023-02-07T06:29:08;6.80;99.90
6260;DHT22;3163;51.516;4.000;2023-02-07T06:31:34;6.80;99.90
6260;DHT22;3163;51.516;4.000;2023-02-07T06:33:59;6.90;99.90
6260;DHT22;3163;51.516;4.000;2023-02-07T06:36:25;7.10;99.90
6260;DHT22;3163;51.516;4.000;2023-02-07T06:38:50;7.20;99.90
6260;DHT22;3163;51.516;4.000;2023-02-07T06:41:21;7.20;99.90
6260;DHT22;3163;51.516;4.000;2023-02-07T06:43:46;7.10;99.90
6260;DHT22;3163;51.516;4.000;2023-02-07T06:46:12;7.00;99.90
6260;DHT22;3163;51.516;4.000;2023-02-07T06:48:38;7.10;99.90
6260;DHT22;3163;51.516;4.000;2023-02-07T06:51:04;7.00;99.90
6260;DHT22;3163;51.516;4.000;2023-02-07T06:53:29;7.00;99.90
6260;DHT22;3163;51.516;4.000;2023-02-07T06:55:55;7.00;99.90
6260;DHT22;3163;51.516;4.000;2023-02-07T06:58:21;7.10;99.90
6260;DHT22;3163;51.516;4.000;2023-02-07T07:00:47;6.80;99.90
6260;DHT22;3163;51.516;4.000;2023-02-07T07:03:14;6.90;99.90
6260;DHT22;3163;51.516;4.000;2023-02-07T07:05:40;7.00;99.90
6260;DHT22;3163;51.516;4.000;2023-02-07T07:08:06;6.80;99.90
6260;DHT22;3163;51.516;4.000;2023-02-07T07:10:32;6.90;99.90
6260;DHT22;3163;51.516;4.000;2023-02-07T07:12:58;6.90;99.90
6260;DHT22;3163;51.516;4.000;2023-02-07T07:15:23;6.50;99.90
6260;DHT22;3163;51.516;4.000;2023-02-07T07:17:49;6.80;99.90
6260;DHT22;3163;51.516;4.000;2023-02-07T07:20:15;6.80;99.90
6260;DHT22;3163;51.516;4.000;2023-02-07T07:22:41;6.60;99.90
6260;DHT22;3163;51.516;4.000;2023-02-07T07:25:07;6.90;99.90
6260;DHT22;3163;51.516;4.000;2023-02-07T07:27:33;7.00;99.90
6260;DHT22;3163;51.516;4.000;2023-02-07T07:29:59;6.50;99.90
6260;DHT22;3163;51.516;4.000;2023-02-07T07:32:24;6.50;99.90
6260;DHT22;3163;51.516;4.000;2023-02-07T07:34:50;6.20;99.90
6260;DHT22;3163;51.516;4.000;2023-02-07T07:37:16;6.80;99.90
6260;DHT22;3163;51.516;4.000;2023-02-07T07:39:42;6.80;99.90
6260;DHT22;3163;51.516;4.000;2023-02-07T07:42:09;6.80;99.90
6260;DHT22;3163;51.516;4.000;2023-02-07T07:44:34;6.90;99.90
6260;DHT22;3163;51.516;4.000;2023-02-07T07:47:00;6.90;99.90
6260;DHT22;3163;51.516;4.000;2023-02-07T07:49:26;6.90;99.90
6260;DHT22;3163;51.516;4.000;2023-02-07T07:51:51;7.00;99.90
6260;DHT22;3163;51.516;4.000;2023-02-07T07:54:17;7.10;99.90
6260;DHT22;3163;51.516;4.000;2023-02-07T07:56:43;7.10;99.90
6260;DHT22;3163;51.516;4.000;2023-02-07T07:59:09;7.20;99.90
6260;DHT22;3163;51.516;4.000;2023-02-07T08:01:34;7.30;99.90
6260;DHT22;3163;51.516;4.000;2023-02-07T08:04:00;7.40;99.90
6260;DHT22;3163;51.516;4.000;2023-02-07T08:06:28;7.60;99.90
6260;DHT22;3163;51.516;4.000;2023-02-07T08:08:54;7.70;99.90
6260;DHT22;3163;51.516;4.000;2023-02-07T08:11:21;7.90;99.90
6260;DHT22;3163;51.516;4.000;2023-02-07T08:13:47;7.90;99.90
6260;DHT22;3163;51.516;4.000;2023-02-07T08:16:14;8.00;99.90
6260;DHT22;3163;51.516;4.000;2023-02-07T08:18:39;8.00;99.90
6260;DHT22;3163;51.516;4.000;2023-02-07T08:21:05;8.20;99.90
6260;DHT22;3163;51.516;4.000;2023-02-07T08:23:31;8.30;99.90
6260;DHT22;3163;51.516;4.000;2023-02-07T08:25:57;8.50;99.90
6260;DHT22;3163;51.516;4.000;2023-02-07T08:28:23;8.60;99.90
6260;DHT22;3163;51.516;4.000;2023-02-07T08:30:48;8.80;99.90
6260;DHT22;3163;51.516;4.000;2023-02-07T08:33:15;8.80;99.90
6260;DHT22;3163;51.516;4.000;2023-02-07T08:35:41;9.00;99.90
6260;DHT22;3163;51.516;4.000;2023-02-07T08:38:07;9.20;99.90
6260;DHT22;3163;51.516;4.000;2023-02-07T08:40:33;9.20;99.90
6260;DHT22;3163;51.516;4.000;2023-02-07T08:42:59;9.30;99.90
6260;DHT22;3163;51.516;4.000;2023-02-07T08:45:25;9.40;99.90
6260;DHT22;3163;51.516;4.000;2023-02-07T08:47:51;9.30;99.90
6260;DHT22;3163;51.516;4.000;2023-02-07T08:50:17;9.30;99.90
6260;DHT22;3163;51.516;4.000;2023-02-07T08:52:43;9.30;99.90
6260;DHT22;3163;51.516;4.000;2023-02-07T08:55:09;9.30;99.90
6260;DHT22;3163;51.516;4.000;2023-02-07T08:57:35;9.40;99.90
6260;DHT22;3163;51.516;4.000;2023-02-07T09:00:02;9.40;99.90
6260;DHT22;3163;51.516;4.000;2023-02-07T09:02:29;9.40;99.90
6260;DHT22;3163;51.516;4.000;2023-02-07T09:04:54;9.40;99.90
6260;DHT22;3163;51.516;4.000;2023-02-07T09:07:20;9.50;99.90
6260;DHT22;3163;51.516;4.000;2023-02-07T09:09:46;9.50;99.90
6260;DHT22;3163;51.516;4.000;2023-02-07T09:12:11;9.50;99.90
6260;DHT22;3163;51.516;4.000;2023-02-07T09:14:38;9.60;99.90
6260;DHT22;3163;51.516;4.000;2023-02-07T09:17:05;9.60;99.90
6260;DHT22;3163;51.516;4.000;2023-02-07T09:19:30;9.70;99.90
6260;DHT22;3163;51.516;4.000;2023-02-07T09:21:56;9.80;99.90
6260;DHT22;3163;51.516;4.000;2023-02-07T09:24:22;9.80;99.90
6260;DHT22;3163;51.516;4.000;2023-02-07T09:26:48;9.70;99.90
6260;DHT22;3163;51.516;4.000;2023-02-07T09:29:14;9.50;99.90
6260;DHT22;3163;51.516;4.000;2023-02-07T09:31:40;9.60;99.90
6260;DHT22;3163;51.516;4.000;2023-02-07T09:34:06;9.60;99.90
6260;DHT22;3163;51.516;4.000;2023-02-07T09:36:32;9.60;99.90
6260;DHT22;3163;51.516;4.000;2023-02-07T09:38:58;9.60;99.90
6260;DHT22;3163;51.516;4.000;2023-02-07T09:44:21;9.60;99.90
6260;DHT22;3163;51.516;4.000;2023-02-07T09:47:06;9.50;99.90
6260;DHT22;3163;51.516;4.000;2023-02-07T09:52:10;8.80;99.90
6260;DHT22;3163;51.516;4.000;2023-02-07T09:54:37;8.90;99.90
6260;DHT22;3163;51.516;4.000;2023-02-07T09:57:07;9.10;99.90
6260;DHT22;3163;51.516;4.000;2023-02-07T09:59:47;8.40;99.90
6260;DHT22;3163;51.516;4.000;2023-02-07T10:02:39;8.30;99.90
6260;DHT22;3163;51.516;4.000;2023-02-07T10:05:18;7.80;99.90
6260;DHT22;3163;51.516;4.000;2023-02-07T10:07:46;7.70;99.90
6260;DHT22;3163;51.516;4.000;2023-02-07T10:10:14;8.10;99.90
6260;DHT22;3163;51.516;4.000;2023-02-07T10:15:48;8.10;99.90
6260;DHT22;3163;51.516;4.000;2023-02-07T10:21:02;8.30;99.90
6260;DHT22;3163;51.516;4.000;2023-02-07T10:26:49;8.50;99.90
6260;DHT22;3163;51.516;4.000;2023-02-07T10:32:18;6.80;99.90
6260;DHT22;3163;51.516;4.000;2023-02-07T10:34:46;7.40;99.90
6260;DHT22;3163;51.516;4.000;2023-02-07T10:37:38;6.50;99.90
6260;DHT22;3163;51.516;4.000;2023-02-07T10:40:23;7.20;99.90
6260;DHT22;3163;51.516;4.000;2023-02-07T10:43:02;7.20;99.90
6260;DHT22;3163;51.516;4.000;2023-02-07T10:45:28;7.00;99.90
6260;DHT22;3163;51.516;4.000;2023-02-07T10:47:54;7.90;99.90
6260;DHT22;3163;51.516;4.000;2023-02-07T10:50:22;6.60;99.90
6260;DHT22;3163;51.516;4.000;2023-02-07T10:52:52;7.40;99.90
6260;DHT22;3163;51.516;4.000;2023-02-07T10:55:33;8.30;99.90
6260;DHT22;3163;51.516;4.000;2023-02-07T10:57:59;8.60;99.90
6260;DHT22;3163;51.516;4.000;2023-02-07T11:00:32;8.80;99.90
6260;DHT22;3163;51.516;4.000;2023-02-07T11:03:05;8.40;99.90
6260;DHT22;3163;51.516;4.000;2023-02-07T11:05:36;8.40;99.90
6260;DHT22;3163;51.516;4.000;2023-02-07T11:10:41;8.30;99.90
6260;DHT22;3163;51.516;4.000;2023-02-07T11:13:16;8.30;99.90
6260;DHT22;3163;51.516;4.000;2023-02-07T11:15:48;8.70;99.90
6260;DHT22;3163;51.516;4.000;2023-02-07T11:18:32;9.20;99.90
6260;DHT22;3163;51.516;4.000;2023-02-07T11:21:07;9.20;99.90
6260;DHT22;3163;51.516;4.000;2023-02-07T11:23:43;8.50;99.90
6260;DHT22;3163;51.516;4.000;2023-02-07T11:26:09;7.90;99.90
6260;DHT22;3163;51.516;4.000;2023-02-07T11:28:36;8.00;99.90
6260;DHT22;3163;51.516;4.000;2023-02-07T11:31:05;8.60;99.90
6260;DHT22;3163;51.516;4.000;2023-02-07T11:33:34;9.00;99.90
6260;DHT22;3163;51.516;4.000;2023-02-07T11:36:19;8.70;99.90
6260;DHT22;3163;51.516;4.000;2023-02-07T11:38:57;7.70;99.90
6260;DHT22;3163;51.516;4.000;2023-02-07T11:41:27;8.20;99.90
6260;DHT22;3163;51.516;4.000;2023-02-07T11:44:01;8.40;99.90
6260;DHT22;3163;51.516;4.000;2023-02-07T11:46:41;8.30;99.90
6260;DHT22;3163;51.516;4.000;2023-02-07T11:49:24;7.00;99.90
6260;DHT22;3163;51.516;4.000;2023-02-07T11:51:55;7.40;99.90
6260;DHT22;3163;51.516;4.000;2023-02-07T11:54:22;8.10;99.90
6260;DHT22;3163;51.516;4.000;2023-02-07T11:56:53;8.50;99.90
6260;DHT22;3163;51.516;4.000;2023-02-07T11:59:26;9.10;99.90
6260;DHT22;3163;51.516;4.000;2023-02-07T12:02:01;9.40;99.90
6260;DHT22;3163;51.516;4.000;2023-02-07T12:04:35;9.60;99.90
6260;DHT22;3163;51.516;4.000;2023-02-07T12:07:16;9.70;99.90
6260;DHT22;3163;51.516;4.000;2023-02-07T12:09:46;9.70;99.90
6260;DHT22;3163;51.516;4.000;2023-02-07T12:12:27;9.70;99.90
6260;DHT22;3163;51.516;4.000;2023-02-07T12:15:03;9.70;99.90
6260;DHT22;3163;51.516;4.000;2023-02-07T12:17:40;9.80;99.90
6260;DHT22;3163;51.516;4.000;2023-02-07T12:20:21;8.40;99.90
6260;DHT22;3163;51.516;4.000;2023-02-07T12:25:47;8.80;99.90
6260;DHT22;3163;51.516;4.000;2023-02-07T12:30:52;9.30;99.90
6260;DHT22;3163;51.516;4.000;2023-02-07T12:33:35;9.20;99.90
6260;DHT22;3163;51.516;4.000;2023-02-07T12:36:22;9.20;99.90
6260;DHT22;3163;51.516;4.000;2023-02-07T12:39:00;9.30;99.90
6260;DHT22;3163;51.516;4.000;2023-02-07T12:41:33;9.30;99.90
6260;DHT22;3163;51.516;4.000;2023-02-07T13:19:49;5.90;99.90
6260;DHT22;3163;51.516;4.000;2023-02-07T13:22:35;6.40;99.90
6260;DHT22;3163;51.516;4.000;2023-02-07T13:25:02;7.20;99.90
6260;DHT22;3163;51.516;4.000;2023-02-07T13:27:33;7.50;99.90
6260;DHT22;3163;51.516;4.000;2023-02-07T13:30:00;7.00;99.90
6260;DHT22;3163;51.516;4.000;2023-02-07T13:32:27;7.20;99.90
6260;DHT22;3163;51.516;4.000;2023-02-07T13:35:06;7.40;99.90
6260;DHT22;3163;51.516;4.000;2023-02-07T13:40:57;7.80;99.90
6260;DHT22;3163;51.516;4.000;2023-02-07T13:48:48;8.10;99.90
6260;DHT22;3163;51.516;4.000;2023-02-07T13:51:38;8.10;99.90
6260;DHT22;3163;51.516;4.000;2023-02-07T13:56:59;8.30;99.90
6260;DHT22;3163;51.516;4.000;2023-02-07T14:00:04;8.40;99.90
6260;DHT22;3163;51.516;4.000;2023-02-07T14:02:29;8.50;99.90
6260;DHT22;3163;51.516;4.000;2023-02-07T14:05:07;8.60;99.90
6260;DHT22;3163;51.516;4.000;2023-02-07T14:07:34;8.60;99.90
6260;DHT22;3163;51.516;4.000;2023-02-07T14:10:02;8.70;99.90
6260;DHT22;3163;51.516;4.000;2023-02-07T14:14:55;8.90;99.90
6260;DHT22;3163;51.516;4.000;2023-02-07T14:23:15;8.90;99.90
6260;DHT22;3163;51.516;4.000;2023-02-07T14:25:43;8.80;99.90
6260;DHT22;3163;51.516;4.000;2023-02-07T14:28:32;8.80;99.90
6260;DHT22;3163;51.516;4.000;2023-02-07T14:31:29;9.00;99.90
6260;DHT22;3163;51.516;4.000;2023-02-07T14:34:12;9.00;99.90
6260;DHT22;3163;51.516;4.000;2023-02-07T14:36:39;9.00;99.90
6260;DHT22;3163;51.516;4.000;2023-02-07T14:39:21;9.00;99.90
6260;DHT22;3163;51.516;4.000;2023-02-07T14:41:49;8.80;99.90
6260;DHT22;3163;51.516;4.000;2023-02-07T14:44:33;8.90;99.90
6260;DHT22;3163;51.516;4.000;2023-02-07T14:47:01;9.00;99.90
6260;DHT22;3163;51.516;4.000;2023-02-07T14:49:48;8.90;99.90
6260;DHT22;3163;51.516;4.000;2023-02-07T14:52:29;9.00;99.90
6260;DHT22;3163;51.516;4.000;2023-02-07T14:55:05;8.80;99.90
6260;DHT22;3163;51.516;4.000;2023-02-07T14:58:01;8.60;99.90
6260;DHT22;3163;51.516;4.000;2023-02-07T15:00:38;7.60;99.90
6260;DHT22;3163;51.516;4.000;2023-02-07T15:03:13;7.80;99.90
6260;DHT22;3163;51.516;4.000;2023-02-07T15:05:48;8.40;99.90
6260;DHT22;3163;51.516;4.000;2023-02-07T15:08:20;8.40;99.90
6260;DHT22;3163;51.516;4.000;2023-02-07T15:10:56;8.60;99.90
6260;DHT22;3163;51.516;4.000;2023-02-07T15:13:30;8.30;99.90
6260;DHT22;3163;51.516;4.000;2023-02-07T15:16:00;8.30;99.90
6260;DHT22;3163;51.516;4.000;2023-02-07T15:18:31;7.90;99.90
6260;DHT22;3163;51.516;4.000;2023-02-07T15:20:58;8.10;99.90
6260;DHT22;3163;51.516;4.000;2023-02-07T15:23:26;8.50;99.90
6260;DHT22;3163;51.516;4.000;2023-02-07T15:25:53;8.50;99.90
6260;DHT22;3163;51.516;4.000;2023-02-07T15:28:23;8.60;99.90
6260;DHT22;3163;51.516;4.000;2023-02-07T15:33:23;8.70;99.90
6260;DHT22;3163;51.516;4.000;2023-02-07T15:35:49;8.80;99.90
6260;DHT22;3163;51.516;4.000;2023-02-07T15:38:25;8.80;99.90
6260;DHT22;3163;51.516;4.000;2023-02-07T15:40:52;8.70;99.90
6260;DHT22;3163;51.516;4.000;2023-02-07T15:43:29;8.60;99.90
6260;DHT22;3163;51.516;4.000;2023-02-07T15:46:13;8.60;99.90
6260;DHT22;3163;51.516;4.000;2023-02-07T15:51:19;8.40;99.90
6260;DHT22;3163;51.516;4.000;2023-02-07T15:53:57;8.50;99.90
6260;DHT22;3163;51.516;4.000;2023-02-07T15:56:24;8.50;99.90
6260;DHT22;3163;51.516;4.000;2023-02-07T15:58:51;8.20;99.90
6260;DHT22;3163;51.516;4.000;2023-02-07T16:01:23;8.30;99.90
6260;DHT22;3163;51.516;4.000;2023-02-07T16:03:49;8.20;99.90
6260;DHT22;3163;51.516;4.000;2023-02-07T16:06:20;8.30;99.90
6260;DHT22;3163;51.516;4.000;2023-02-07T16:08:48;8.10;99.90
6260;DHT22;3163;51.516;4.000;2023-02-07T16:14:00;8.20;99.90
6260;DHT22;3163;51.516;4.000;2023-02-07T16:16:45;8.20;99.90
6260;DHT22;3163;51.516;4.000;2023-02-07T16:19:26;8.00;99.90
6260;DHT22;3163;51.516;4.000;2023-02-07T16:24:27;7.90;99.90
6260;DHT22;3163;51.516;4.000;2023-02-07T16:26:54;7.80;99.90
6260;DHT22;3163;51.516;4.000;2023-02-07T16:29:22;7.80;99.90
6260;DHT22;3163;51.516;4.000;2023-02-07T16:31:49;7.90;99.90
6260;DHT22;3163;51.516;4.000;2023-02-07T16:34:17;7.90;99.90
6260;DHT22;3163;51.516;4.000;2023-02-07T16:36:43;8.10;99.90
6260;DHT22;3163;51.516;4.000;2023-02-07T16:39:11;8.20;99.90
6260;DHT22;3163;51.516;4.000;2023-02-07T16:41:39;8.30;99.90
6260;DHT22;3163;51.516;4.000;2023-02-07T16:44:13;8.40;99.90
6260;DHT22;3163;51.516;4.000;2023-02-07T16:46:41;8.50;99.90
6260;DHT22;3163;51.516;4.000;2023-02-07T16:49:18;8.50;99.90
6260;DHT22;3163;51.516;4.000;2023-02-07T16:51:44;8.60;99.90
6260;DHT22;3163;51.516;4.000;2023-02-07T16:54:10;8.40;99.90
6260;DHT22;3163;51.516;4.000;2023-02-07T16:56:36;8.50;99.90
6260;DHT22;3163;51.516;4.000;2023-02-07T16:59:02;8.50;99.90
6260;DHT22;3163;51.516;4.000;2023-02-07T17:01:28;8.50;99.90
6260;DHT22;3163;51.516;4.000;2023-02-07T17:03:54;8.60;99.90
6260;DHT22;3163;51.516;4.000;2023-02-07T17:06:21;8.50;99.90
6260;DHT22;3163;51.516;4.000;2023-02-07T17:08:48;8.50;99.90
6260;DHT22;3163;51.516;4.000;2023-02-07T17:11:18;8.30;99.90
6260;DHT22;3163;51.516;4.000;2023-02-07T17:13:51;7.90;99.90
6260;DHT22;3163;51.516;4.000;2023-02-07T17:16:17;8.10;99.90
6260;DHT22;3163;51.516;4.000;2023-02-07T17:18:43;8.00;99.90
6260;DHT22;3163;51.516;4.000;2023-02-07T17:21:08;8.20;99.90
6260;DHT22;3163;51.516;4.000;2023-02-07T17:23:36;8.10;99.90
6260;DHT22;3163;51.516;4.000;2023-02-07T17:26:02;8.10;99.90
6260;DHT22;3163;51.516;4.000;2023-02-07T17:28:29;7.90;99.90
6260;DHT22;3163;51.516;4.000;2023-02-07T17:30:54;7.70;99.90
6260;DHT22;3163;51.516;4.000;2023-02-07T17:33:21;7.60;99.90
6260;DHT22;3163;51.516;4.000;2023-02-07T17:35:46;7.20;99.90
6260;DHT22;3163;51.516;4.000;2023-02-07T17:38:12;7.20;99.90
6260;DHT22;3163;51.516;4.000;2023-02-07T17:40:38;6.90;99.90
6260;DHT22;3163;51.516;4.000;2023-02-07T17:43:06;7.20;99.90
6260;DHT22;3163;51.516;4.000;2023-02-07T17:45:33;7.20;99.90
6260;DHT22;3163;51.516;4.000;2023-02-07T17:47:59;7.20;99.90
6260;DHT22;3163;51.516;4.000;2023-02-07T17:50:31;7.20;99.90
6260;DHT22;3163;51.516;4.000;2023-02-07T17:52:58;6.60;99.90
6260;DHT22;3163;51.516;4.000;2023-02-07T17:55:26;6.90;99.90
6260;DHT22;3163;51.516;4.000;2023-02-07T17:57:52;7.20;99.90
6260;DHT22;3163;51.516;4.000;2023-02-07T18:00:27;7.40;99.90
6260;DHT22;3163;51.516;4.000;2023-02-07T18:02:54;7.50;99.90
6260;DHT22;3163;51.516;4.000;2023-02-07T18:05:20;7.40;99.90
6260;DHT22;3163;51.516;4.000;2023-02-07T18:07:47;7.40;99.90
6260;DHT22;3163;51.516;4.000;2023-02-07T18:10:25;7.20;99.90
6260;DHT22;3163;51.516;4.000;2023-02-07T18:12:51;7.40;99.90
6260;DHT22;3163;51.516;4.000;2023-02-07T18:15:18;7.40;99.90
6260;DHT22;3163;51.516;4.000;2023-02-07T18:17:45;7.60;99.90
6260;DHT22;3163;51.516;4.000;2023-02-07T18:20:14;7.70;99.90
6260;DHT22;3163;51.516;4.000;2023-02-07T18:22:40;7.60;99.90
6260;DHT22;3163;51.516;4.000;2023-02-07T18:25:06;7.30;99.90
6260;DHT22;3163;51.516;4.000;2023-02-07T18:27:34;7.40;99.90
6260;DHT22;3163;51.516;4.000;2023-02-07T18:30:00;7.40;99.90
6260;DHT22;3163;51.516;4.000;2023-02-07T18:32:26;7.20;99.90
6260;DHT22;3163;51.516;4.000;2023-02-07T18:34:52;7.30;99.90
6260;DHT22;3163;51.516;4.000;2023-02-07T18:37:17;7.30;99.90
6260;DHT22;3163;51.516;4.000;2023-02-07T18:39:46;7.20;99.90